sensor_id;sensor_type;location;lat;lon;timestamp;temperature;humidity
4209;DHT22;36320;48.860;2.380;2022-07-17T00:02:15;25.70;36.90
4209;DHT22;36320;48.860;2.380;2022-07-17T00:04:47;25.70;36.90
4209;DHT22;36320;48.860;2.380;2022-07-17T00:07:16;25.70;36.90
4209;DHT22;36320;48.860;2.380;2022-07-17T00:09:42;25.70;36.90
4209;DHT22;36320;48.860;2.380;2022-07-17T00:12:07;25.60;37.00
4209;DHT22;36320;48.860;2.380;2022-07-17T00:14:33;25.60;37.10
4209;DHT22;36320;48.860;2.380;2022-07-17T00:16:58;25.50;37.20
4209;DHT22;36320;48.860;2.380;2022-07-17T00:19:25;25.50;37.30
4209;DHT22;36320;48.860;2.380;2022-07-17T00:21:51;25.40;37.50
4209;DHT22;36320;48.860;2.380;2022-07-17T00:24:16;25.40;37.40
4209;DHT22;36320;48.860;2.380;2022-07-17T00:26:49;25.40;37.60
4209;DHT22;36320;48.860;2.380;2022-07-17T00:29:15;25.50;37.60
4209;DHT22;36320;48.860;2.380;2022-07-17T00:31:41;25.80;37.80
4209;DHT22;36320;48.860;2.380;2022-07-17T00:34:10;25.40;37.70
4209;DHT22;36320;48.860;2.380;2022-07-17T00:36:36;25.40;37.60
4209;DHT22;36320;48.860;2.380;2022-07-17T00:39:02;25.40;37.60
4209;DHT22;36320;48.860;2.380;2022-07-17T00:41:28;25.30;37.70
4209;DHT22;36320;48.860;2.380;2022-07-17T00:43:53;25.30;37.80
4209;DHT22;36320;48.860;2.380;2022-07-17T00:46:20;25.20;37.90
4209;DHT22;36320;48.860;2.380;2022-07-17T00:48:46;25.30;38.00
4209;DHT22;36320;48.860;2.380;2022-07-17T00:51:12;25.30;38.00
4209;DHT22;36320;48.860;2.380;2022-07-17T00:53:37;25.20;38.00
4209;DHT22;36320;48.860;2.380;2022-07-17T00:56:06;25.20;38.10
4209;DHT22;36320;48.860;2.380;2022-07-17T00:58:35;25.20;38.20
4209;DHT22;36320;48.860;2.380;2022-07-17T01:01:04;25.10;38.10
4209;DHT22;36320;48.860;2.380;2022-07-17T01:03:32;25.10;38.20
4209;DHT22;36320;48.860;2.380;2022-07-17T01:05:58;25.00;38.20
4209;DHT22;36320;48.860;2.380;2022-07-17T01:08:24;25.00;38.40
4209;DHT22;36320;48.860;2.380;2022-07-17T01:10:50;25.00;38.40
4209;DHT22;36320;48.860;2.380;2022-07-17T01:13:16;25.00;38.50
4209;DHT22;36320;48.860;2.380;2022-07-17T01:15:42;25.00;38.50
4209;DHT22;36320;48.860;2.380;2022-07-17T01:18:09;24.90;38.50
4209;DHT22;36320;48.860;2.380;2022-07-17T01:20:37;24.90;38.70
4209;DHT22;36320;48.860;2.380;2022-07-17T01:23:03;25.00;38.70
4209;DHT22;36320;48.860;2.380;2022-07-17T01:25:30;24.90;38.70
4209;DHT22;36320;48.860;2.380;2022-07-17T01:27:56;24.90;38.90
4209;DHT22;36320;48.860;2.380;2022-07-17T01:30:21;24.80;38.90
4209;DHT22;36320;48.860;2.380;2022-07-17T01:32:47;24.50;38.80
4209;DHT22;36320;48.860;2.380;2022-07-17T01:35:15;24.80;39.00
4209;DHT22;36320;48.860;2.380;2022-07-17T01:37:41;24.80;39.00
4209;DHT22;36320;48.860;2.380;2022-07-17T01:40:09;24.80;39.00
4209;DHT22;36320;48.860;2.380;2022-07-17T01:42:35;24.70;39.00
4209;DHT22;36320;48.860;2.380;2022-07-17T01:45:01;24.80;39.20
4209;DHT22;36320;48.860;2.380;2022-07-17T01:47:27;24.70;39.20
4209;DHT22;36320;48.860;2.380;2022-07-17T01:49:56;24.60;39.20
4209;DHT22;36320;48.860;2.380;2022-07-17T01:52:24;24.70;39.30
4209;DHT22;36320;48.860;2.380;2022-07-17T01:54:50;24.80;39.20
4209;DHT22;36320;48.860;2.380;2022-07-17T01:57:16;24.70;39.10
4209;DHT22;36320;48.860;2.380;2022-07-17T01:59:42;24.70;39.20
4209;DHT22;36320;48.860;2.380;2022-07-17T02:02:08;24.70;39.20
4209;DHT22;36320;48.860;2.380;2022-07-17T02:04:35;24.70;39.20
4209;DHT22;36320;48.860;2.380;2022-07-17T02:07:02;24.60;39.20
4209;DHT22;36320;48.860;2.380;2022-07-17T02:09:28;24.60;39.30
4209;DHT22;36320;48.860;2.380;2022-07-17T02:11:54;24.50;39.20
4209;DHT22;36320;48.860;2.380;2022-07-17T02:14:21;24.50;39.30
4209;DHT22;36320;48.860;2.380;2022-07-17T02:16:50;24.50;39.20
4209;DHT22;36320;48.860;2.380;2022-07-17T02:19:15;24.50;39.40
4209;DHT22;36320;48.860;2.380;2022-07-17T02:21:41;24.50;39.30
4209;DHT22;36320;48.860;2.380;2022-07-17T02:24:07;24.50;39.30
4209;DHT22;36320;48.860;2.380;2022-07-17T02:26:33;24.50;39.30
4209;DHT22;36320;48.860;2.380;2022-07-17T02:28:58;24.40;39.40
4209;DHT22;36320;48.860;2.380;2022-07-17T02:31:24;24.30;39.50
4209;DHT22;36320;48.860;2.380;2022-07-17T02:33:50;24.30;39.60
4209;DHT22;36320;48.860;2.380;2022-07-17T02:36:16;24.20;39.60
4209;DHT22;36320;48.860;2.380;2022-07-17T02:38:42;24.20;39.70
4209;DHT22;36320;48.860;2.380;2022-07-17T02:41:08;24.20;39.80
4209;DHT22;36320;48.860;2.380;2022-07-17T02:43:33;24.10;39.80
4209;DHT22;36320;48.860;2.380;2022-07-17T02:46:00;24.10;39.90
4209;DHT22;36320;48.860;2.380;2022-07-17T02:48:26;24.10;39.90
4209;DHT22;36320;48.860;2.380;2022-07-17T02:50:52;24.10;39.90
4209;DHT22;36320;48.860;2.380;2022-07-17T02:53:18;24.10;40.00
4209;DHT22;36320;48.860;2.380;2022-07-17T02:55:43;24.10;40.00
4209;DHT22;36320;48.860;2.380;2022-07-17T02:58:12;24.10;40.00
4209;DHT22;36320;48.860;2.380;2022-07-17T03:00:42;24.10;40.10
4209;DHT22;36320;48.860;2.380;2022-07-17T03:03:13;24.10;40.10
4209;DHT22;36320;48.860;2.380;2022-07-17T03:05:40;24.10;40.20
4209;DHT22;36320;48.860;2.380;2022-07-17T03:08:06;24.10;40.20
4209;DHT22;36320;48.860;2.380;2022-07-17T03:10:32;24.10;40.10
4209;DHT22;36320;48.860;2.380;2022-07-17T03:12:58;24.20;40.20
4209;DHT22;36320;48.860;2.380;2022-07-17T03:15:24;24.10;40.20
4209;DHT22;36320;48.860;2.380;2022-07-17T03:17:50;24.10;40.10
4209;DHT22;36320;48.860;2.380;2022-07-17T03:20:16;24.60;40.70
4209;DHT22;36320;48.860;2.380;2022-07-17T03:22:44;24.20;40.20
4209;DHT22;36320;48.860;2.380;2022-07-17T03:25:10;24.20;40.10
4209;DHT22;36320;48.860;2.380;2022-07-17T03:27:36;24.10;40.20
4209;DHT22;36320;48.860;2.380;2022-07-17T03:30:01;24.10;40.20
4209;DHT22;36320;48.860;2.380;2022-07-17T03:32:28;24.10;40.30
4209;DHT22;36320;48.860;2.380;2022-07-17T03:34:53;24.00;40.30
4209;DHT22;36320;48.860;2.380;2022-07-17T03:37:19;24.00;40.40
4209;DHT22;36320;48.860;2.380;2022-07-17T03:39:45;24.00;40.50
4209;DHT22;36320;48.860;2.380;2022-07-17T03:42:10;24.00;40.40
4209;DHT22;36320;48.860;2.380;2022-07-17T03:44:36;24.00;40.40
4209;DHT22;36320;48.860;2.380;2022-07-17T03:47:02;24.00;40.40
4209;DHT22;36320;48.860;2.380;2022-07-17T03:49:27;24.00;40.50
4209;DHT22;36320;48.860;2.380;2022-07-17T03:51:53;23.90;41.30
4209;DHT22;36320;48.860;2.380;2022-07-17T03:54:19;23.90;40.80
4209;DHT22;36320;48.860;2.380;2022-07-17T03:56:45;23.90;40.80
4209;DHT22;36320;48.860;2.380;2022-07-17T03:59:11;23.80;40.90
4209;DHT22;36320;48.860;2.380;2022-07-17T04:01:36;23.70;41.10
4209;DHT22;36320;48.860;2.380;2022-07-17T04:04:06;23.70;41.10
4209;DHT22;36320;48.860;2.380;2022-07-17T04:06:32;23.80;41.30
4209;DHT22;36320;48.860;2.380;2022-07-17T04:08:58;23.70;41.20
4209;DHT22;36320;48.860;2.380;2022-07-17T04:11:24;23.70;41.30
4209;DHT22;36320;48.860;2.380;2022-07-17T04:13:49;23.70;41.40
4209;DHT22;36320;48.860;2.380;2022-07-17T04:16:15;23.70;41.40
4209;DHT22;36320;48.860;2.380;2022-07-17T04:18:41;23.70;41.40
4209;DHT22;36320;48.860;2.380;2022-07-17T04:21:08;24.10;41.70
4209;DHT22;36320;48.860;2.380;2022-07-17T04:23:35;23.70;41.40
4209;DHT22;36320;48.860;2.380;2022-07-17T04:26:01;23.70;41.30
4209;DHT22;36320;48.860;2.380;2022-07-17T04:28:27;23.50;42.40
4209;DHT22;36320;48.860;2.380;2022-07-17T04:30:52;23.30;42.30
4209;DHT22;36320;48.860;2.380;2022-07-17T04:33:18;23.40;42.30
4209;DHT22;36320;48.860;2.380;2022-07-17T04:35:44;23.50;42.10
4209;DHT22;36320;48.860;2.380;2022-07-17T04:38:09;23.20;42.30
4209;DHT22;36320;48.860;2.380;2022-07-17T04:40:37;23.10;42.60
4209;DHT22;36320;48.860;2.380;2022-07-17T04:43:03;23.20;42.40
4209;DHT22;36320;48.860;2.380;2022-07-17T04:45:30;23.30;42.50
4209;DHT22;36320;48.860;2.380;2022-07-17T04:47:56;23.30;42.40
4209;DHT22;36320;48.860;2.380;2022-07-17T04:50:22;23.40;42.30
4209;DHT22;36320;48.860;2.380;2022-07-17T04:52:48;23.40;42.40
4209;DHT22;36320;48.860;2.380;2022-07-17T04:55:14;23.50;42.50
4209;DHT22;36320;48.860;2.380;2022-07-17T04:57:40;23.50;42.20
4209;DHT22;36320;48.860;2.380;2022-07-17T05:00:07;23.40;42.40
4209;DHT22;36320;48.860;2.380;2022-07-17T05:02:33;23.50;42.40
4209;DHT22;36320;48.860;2.380;2022-07-17T05:05:00;23.60;42.40
4209;DHT22;36320;48.860;2.380;2022-07-17T05:07:26;23.40;42.20
4209;DHT22;36320;48.860;2.380;2022-07-17T05:09:52;23.40;42.30
4209;DHT22;36320;48.860;2.380;2022-07-17T05:12:17;23.00;42.70
4209;DHT22;36320;48.860;2.380;2022-07-17T05:14:43;22.90;43.20
4209;DHT22;36320;48.860;2.380;2022-07-17T05:17:09;23.00;43.10
4209;DHT22;36320;48.860;2.380;2022-07-17T05:19:35;23.10;43.00
4209;DHT22;36320;48.860;2.380;2022-07-17T05:22:04;23.20;42.80
4209;DHT22;36320;48.860;2.380;2022-07-17T05:24:30;23.20;43.00
4209;DHT22;36320;48.860;2.380;2022-07-17T05:26:56;23.30;42.60
4209;DHT22;36320;48.860;2.380;2022-07-17T05:29:22;23.40;42.40
4209;DHT22;36320;48.860;2.380;2022-07-17T05:31:48;23.50;42.30
4209;DHT22;36320;48.860;2.380;2022-07-17T05:34:14;23.30;42.30
4209;DHT22;36320;48.860;2.380;2022-07-17T05:36:40;23.40;42.60
4209;DHT22;36320;48.860;2.380;2022-07-17T05:39:07;23.50;42.30
4209;DHT22;36320;48.860;2.380;2022-07-17T05:41:34;23.60;42.20
4209;DHT22;36320;48.860;2.380;2022-07-17T05:43:59;23.70;42.00
4209;DHT22;36320;48.860;2.380;2022-07-17T05:46:25;23.60;42.10
4209;DHT22;36320;48.860;2.380;2022-07-17T05:48:51;23.80;42.00
4209;DHT22;36320;48.860;2.380;2022-07-17T05:51:16;24.00;41.80
4209;DHT22;36320;48.860;2.380;2022-07-17T05:53:42;23.90;41.70
4209;DHT22;36320;48.860;2.380;2022-07-17T05:56:08;24.00;41.70
4209;DHT22;36320;48.860;2.380;2022-07-17T05:58:33;24.20;41.50
4209;DHT22;36320;48.860;2.380;2022-07-17T06:00:59;24.40;41.20
4209;DHT22;36320;48.860;2.380;2022-07-17T06:03:25;24.40;41.10
4209;DHT22;36320;48.860;2.380;2022-07-17T06:05:50;24.40;41.00
4209;DHT22;36320;48.860;2.380;2022-07-17T06:08:16;24.40;41.00
4209;DHT22;36320;48.860;2.380;2022-07-17T06:10:42;24.30;41.00
4209;DHT22;36320;48.860;2.380;2022-07-17T06:13:07;24.20;41.10
4209;DHT22;36320;48.860;2.380;2022-07-17T06:15:33;24.20;41.30
4209;DHT22;36320;48.860;2.380;2022-07-17T06:18:02;24.40;41.20
4209;DHT22;36320;48.860;2.380;2022-07-17T06:20:29;24.50;41.00
4209;DHT22;36320;48.860;2.380;2022-07-17T06:22:55;24.70;40.80
4209;DHT22;36320;48.860;2.380;2022-07-17T06:25:21;24.90;40.60
4209;DHT22;36320;48.860;2.380;2022-07-17T06:27:46;25.00;40.30
4209;DHT22;36320;48.860;2.380;2022-07-17T06:30:14;25.10;40.00
4209;DHT22;36320;48.860;2.380;2022-07-17T06:32:41;25.00;40.00
4209;DHT22;36320;48.860;2.380;2022-07-17T06:35:12;24.90;40.20
4209;DHT22;36320;48.860;2.380;2022-07-17T06:37:38;24.90;40.20
4209;DHT22;36320;48.860;2.380;2022-07-17T06:40:05;25.10;40.00
4209;DHT22;36320;48.860;2.380;2022-07-17T06:42:31;25.20;39.80
4209;DHT22;36320;48.860;2.380;2022-07-17T06:44:56;25.30;39.50
4209;DHT22;36320;48.860;2.380;2022-07-17T06:47:22;25.20;39.60
4209;DHT22;36320;48.860;2.380;2022-07-17T06:49:48;25.30;39.60
4209;DHT22;36320;48.860;2.380;2022-07-17T06:52:14;25.50;39.30
4209;DHT22;36320;48.860;2.380;2022-07-17T06:54:41;25.50;39.20
4209;DHT22;36320;48.860;2.380;2022-07-17T06:57:07;25.60;39.10
4209;DHT22;36320;48.860;2.380;2022-07-17T06:59:33;25.80;39.00
4209;DHT22;36320;48.860;2.380;2022-07-17T07:02:00;25.60;38.80
4209;DHT22;36320;48.860;2.380;2022-07-17T07:04:26;25.50;38.90
4209;DHT22;36320;48.860;2.380;2022-07-17T07:06:52;25.70;38.70
4209;DHT22;36320;48.860;2.380;2022-07-17T07:09:18;25.80;38.30
4209;DHT22;36320;48.860;2.380;2022-07-17T07:11:43;25.80;38.00
4209;DHT22;36320;48.860;2.380;2022-07-17T07:14:09;25.90;38.00
4209;DHT22;36320;48.860;2.380;2022-07-17T07:16:35;26.10;38.50
4209;DHT22;36320;48.860;2.380;2022-07-17T07:19:01;26.10;37.60
4209;DHT22;36320;48.860;2.380;2022-07-17T07:21:27;26.30;37.40
4209;DHT22;36320;48.860;2.380;2022-07-17T07:23:53;26.50;37.80
4209;DHT22;36320;48.860;2.380;2022-07-17T07:26:19;26.50;37.00
4209;DHT22;36320;48.860;2.380;2022-07-17T07:28:45;26.40;36.90
4209;DHT22;36320;48.860;2.380;2022-07-17T07:31:13;26.40;36.80
4209;DHT22;36320;48.860;2.380;2022-07-17T07:33:39;26.50;36.90
4209;DHT22;36320;48.860;2.380;2022-07-17T07:36:05;26.60;36.80
4209;DHT22;36320;48.860;2.380;2022-07-17T07:38:31;26.80;36.60
4209;DHT22;36320;48.860;2.380;2022-07-17T07:40:56;26.90;36.40
4209;DHT22;36320;48.860;2.380;2022-07-17T07:43:22;27.00;37.00
4209;DHT22;36320;48.860;2.380;2022-07-17T07:45:49;27.00;36.10
4209;DHT22;36320;48.860;2.380;2022-07-17T07:48:15;27.00;36.00
4209;DHT22;36320;48.860;2.380;2022-07-17T07:50:40;27.20;36.00
4209;DHT22;36320;48.860;2.380;2022-07-17T07:53:06;27.20;35.70
4209;DHT22;36320;48.860;2.380;2022-07-17T07:55:32;27.20;35.60
4209;DHT22;36320;48.860;2.380;2022-07-17T07:58:09;27.30;35.50
4209;DHT22;36320;48.860;2.380;2022-07-17T08:00:36;27.40;35.30
4209;DHT22;36320;48.860;2.380;2022-07-17T08:03:03;27.40;35.10
4209;DHT22;36320;48.860;2.380;2022-07-17T08:05:29;27.40;35.00
4209;DHT22;36320;48.860;2.380;2022-07-17T08:07:55;27.40;34.90
4209;DHT22;36320;48.860;2.380;2022-07-17T08:10:21;27.40;35.00
4209;DHT22;36320;48.860;2.380;2022-07-17T08:12:46;27.50;35.00
4209;DHT22;36320;48.860;2.380;2022-07-17T08:15:14;27.60;34.90
4209;DHT22;36320;48.860;2.380;2022-07-17T08:17:40;27.60;34.80
4209;DHT22;36320;48.860;2.380;2022-07-17T08:20:06;27.70;34.80
4209;DHT22;36320;48.860;2.380;2022-07-17T08:22:32;27.80;34.60
4209;DHT22;36320;48.860;2.380;2022-07-17T08:24:58;27.90;34.40
4209;DHT22;36320;48.860;2.380;2022-07-17T08:27:27;28.10;34.20
4209;DHT22;36320;48.860;2.380;2022-07-17T08:29:53;28.10;34.00
4209;DHT22;36320;48.860;2.380;2022-07-17T08:32:18;28.20;33.80
4209;DHT22;36320;48.860;2.380;2022-07-17T08:34:44;28.30;33.70
4209;DHT22;36320;48.860;2.380;2022-07-17T08:37:11;28.40;33.50
4209;DHT22;36320;48.860;2.380;2022-07-17T08:39:37;28.40;33.50
4209;DHT22;36320;48.860;2.380;2022-07-17T08:42:03;28.50;33.50
4209;DHT22;36320;48.860;2.380;2022-07-17T08:44:29;28.60;33.40
4209;DHT22;36320;48.860;2.380;2022-07-17T08:46:54;28.60;33.20
4209;DHT22;36320;48.860;2.380;2022-07-17T08:49:21;28.60;33.10
4209;DHT22;36320;48.860;2.380;2022-07-17T08:51:47;28.60;33.10
4209;DHT22;36320;48.860;2.380;2022-07-17T08:54:13;28.50;33.00
4209;DHT22;36320;48.860;2.380;2022-07-17T08:56:40;28.60;33.00
4209;DHT22;36320;48.860;2.380;2022-07-17T08:59:06;28.70;32.80
4209;DHT22;36320;48.860;2.380;2022-07-17T09:01:32;28.80;32.60
4209;DHT22;36320;48.860;2.380;2022-07-17T09:03:59;28.90;32.40
4209;DHT22;36320;48.860;2.380;2022-07-17T09:06:26;29.00;32.40
4209;DHT22;36320;48.860;2.380;2022-07-17T09:09:09;29.10;32.10
4209;DHT22;36320;48.860;2.380;2022-07-17T09:11:53;29.20;31.90
4209;DHT22;36320;48.860;2.380;2022-07-17T09:14:21;29.20;31.70
4209;DHT22;36320;48.860;2.380;2022-07-17T09:19:30;29.20;31.50
4209;DHT22;36320;48.860;2.380;2022-07-17T09:22:16;29.30;31.50
4209;DHT22;36320;48.860;2.380;2022-07-17T09:24:56;29.30;31.30
4209;DHT22;36320;48.860;2.380;2022-07-17T09:29:51;29.50;31.00
4209;DHT22;36320;48.860;2.380;2022-07-17T09:32:23;29.60;30.70
4209;DHT22;36320;48.860;2.380;2022-07-17T09:34:53;29.70;30.40
4209;DHT22;36320;48.860;2.380;2022-07-17T09:37:25;29.80;30.10
4209;DHT22;36320;48.860;2.380;2022-07-17T09:39:51;29.80;29.90
4209;DHT22;36320;48.860;2.380;2022-07-17T09:45:07;29.80;29.90
4209;DHT22;36320;48.860;2.380;2022-07-17T09:47:37;29.90;29.80
4209;DHT22;36320;48.860;2.380;2022-07-17T09:50:05;30.00;29.60
4209;DHT22;36320;48.860;2.380;2022-07-17T09:52:35;30.10;29.40
4209;DHT22;36320;48.860;2.380;2022-07-17T09:55:02;30.00;29.20
4209;DHT22;36320;48.860;2.380;2022-07-17T09:57:30;30.00;29.40
4209;DHT22;36320;48.860;2.380;2022-07-17T09:59:59;30.10;29.40
4209;DHT22;36320;48.860;2.380;2022-07-17T10:02:27;30.00;29.00
4209;DHT22;36320;48.860;2.380;2022-07-17T10:04:53;30.00;28.70
4209;DHT22;36320;48.860;2.380;2022-07-17T10:07:19;29.90;28.70
4209;DHT22;36320;48.860;2.380;2022-07-17T10:09:46;29.90;28.80
4209;DHT22;36320;48.860;2.380;2022-07-17T10:12:13;29.90;28.90
4209;DHT22;36320;48.860;2.380;2022-07-17T10:14:40;30.00;28.90
4209;DHT22;36320;48.860;2.380;2022-07-17T10:17:08;30.20;28.70
4209;DHT22;36320;48.860;2.380;2022-07-17T10:19:43;30.10;28.60
4209;DHT22;36320;48.860;2.380;2022-07-17T10:22:09;30.10;28.40
4209;DHT22;36320;48.860;2.380;2022-07-17T10:24:45;30.20;28.10
4209;DHT22;36320;48.860;2.380;2022-07-17T10:27:27;30.30;28.10
4209;DHT22;36320;48.860;2.380;2022-07-17T10:30:06;30.40;27.90
4209;DHT22;36320;48.860;2.380;2022-07-17T10:32:33;30.40;27.10
4209;DHT22;36320;48.860;2.380;2022-07-17T10:35:08;30.40;26.80
4209;DHT22;36320;48.860;2.380;2022-07-17T10:40:06;30.30;26.70
4209;DHT22;36320;48.860;2.380;2022-07-17T10:42:43;30.20;26.70
4209;DHT22;36320;48.860;2.380;2022-07-17T10:47:48;30.10;26.80
4209;DHT22;36320;48.860;2.380;2022-07-17T10:50:15;30.40;26.70
4209;DHT22;36320;48.860;2.380;2022-07-17T10:52:42;30.60;26.20
4209;DHT22;36320;48.860;2.380;2022-07-17T10:55:31;30.70;26.00
4209;DHT22;36320;48.860;2.380;2022-07-17T10:57:57;30.80;26.00
4209;DHT22;36320;48.860;2.380;2022-07-17T11:00:24;30.80;26.00
4209;DHT22;36320;48.860;2.380;2022-07-17T11:02:50;30.80;25.90
4209;DHT22;36320;48.860;2.380;2022-07-17T11:05:16;30.90;25.80
4209;DHT22;36320;48.860;2.380;2022-07-17T11:07:54;31.00;25.80
4209;DHT22;36320;48.860;2.380;2022-07-17T11:10:21;30.90;25.80
4209;DHT22;36320;48.860;2.380;2022-07-17T11:12:47;30.60;26.00
4209;DHT22;36320;48.860;2.380;2022-07-17T11:15:13;30.40;26.30
4209;DHT22;36320;48.860;2.380;2022-07-17T11:17:44;30.50;26.40
4209;DHT22;36320;48.860;2.380;2022-07-17T11:20:14;30.70;26.50
4209;DHT22;36320;48.860;2.380;2022-07-17T11:22:42;30.90;26.40
4209;DHT22;36320;48.860;2.380;2022-07-17T11:25:08;30.90;26.30
4209;DHT22;36320;48.860;2.380;2022-07-17T11:27:34;31.20;26.40
4209;DHT22;36320;48.860;2.380;2022-07-17T11:30:02;31.20;26.30
4209;DHT22;36320;48.860;2.380;2022-07-17T11:32:37;31.30;26.20
4209;DHT22;36320;48.860;2.380;2022-07-17T11:35:15;31.40;26.00
4209;DHT22;36320;48.860;2.380;2022-07-17T11:37:42;31.30;25.80
4209;DHT22;36320;48.860;2.380;2022-07-17T11:40:08;31.40;25.70
4209;DHT22;36320;48.860;2.380;2022-07-17T11:42:34;31.30;25.70
4209;DHT22;36320;48.860;2.380;2022-07-17T11:45:00;31.00;25.60
4209;DHT22;36320;48.860;2.380;2022-07-17T11:47:27;31.40;25.70
4209;DHT22;36320;48.860;2.380;2022-07-17T11:50:10;31.50;25.70
4209;DHT22;36320;48.860;2.380;2022-07-17T11:52:47;31.50;25.80
4209;DHT22;36320;48.860;2.380;2022-07-17T11:55:17;31.50;25.80
4209;DHT22;36320;48.860;2.380;2022-07-17T11:57:48;31.50;25.70
4209;DHT22;36320;48.860;2.380;2022-07-17T12:00:16;31.60;25.60
4209;DHT22;36320;48.860;2.380;2022-07-17T12:02:43;31.50;25.30
4209;DHT22;36320;48.860;2.380;2022-07-17T12:05:09;31.50;25.30
4209;DHT22;36320;48.860;2.380;2022-07-17T12:07:43;31.60;25.20
4209;DHT22;36320;48.860;2.380;2022-07-17T12:10:21;31.60;25.00
4209;DHT22;36320;48.860;2.380;2022-07-17T12:13:05;31.60;24.90
4209;DHT22;36320;48.860;2.380;2022-07-17T12:15:42;31.30;24.60
4209;DHT22;36320;48.860;2.380;2022-07-17T12:18:24;31.60;24.60
4209;DHT22;36320;48.860;2.380;2022-07-17T12:20:52;31.70;24.50
4209;DHT22;36320;48.860;2.380;2022-07-17T12:23:36;31.70;24.60
4209;DHT22;36320;48.860;2.380;2022-07-17T12:26:14;31.80;24.60
4209;DHT22;36320;48.860;2.380;2022-07-17T12:28:42;31.80;24.70
4209;DHT22;36320;48.860;2.380;2022-07-17T12:31:09;31.80;24.90
4209;DHT22;36320;48.860;2.380;2022-07-17T12:33:35;31.90;25.10
4209;DHT22;36320;48.860;2.380;2022-07-17T12:36:00;31.90;25.20
4209;DHT22;36320;48.860;2.380;2022-07-17T12:38:26;31.80;25.30
4209;DHT22;36320;48.860;2.380;2022-07-17T12:40:52;31.80;25.30
4209;DHT22;36320;48.860;2.380;2022-07-17T12:43:18;31.90;25.30
4209;DHT22;36320;48.860;2.380;2022-07-17T12:45:43;31.80;25.20
4209;DHT22;36320;48.860;2.380;2022-07-17T12:48:11;31.80;25.20
4209;DHT22;36320;48.860;2.380;2022-07-17T12:50:37;31.80;25.20
4209;DHT22;36320;48.860;2.380;2022-07-17T12:53:03;31.90;25.20
4209;DHT22;36320;48.860;2.380;2022-07-17T12:55:29;31.90;25.10
4209;DHT22;36320;48.860;2.380;2022-07-17T12:57:55;31.90;25.10
4209;DHT22;36320;48.860;2.380;2022-07-17T13:00:22;31.90;25.10
4209;DHT22;36320;48.860;2.380;2022-07-17T13:02:58;32.00;25.10
4209;DHT22;36320;48.860;2.380;2022-07-17T13:05:28;32.10;25.00
4209;DHT22;36320;48.860;2.380;2022-07-17T13:07:54;32.10;24.90
4209;DHT22;36320;48.860;2.380;2022-07-17T13:10:22;32.20;24.80
4209;DHT22;36320;48.860;2.380;2022-07-17T13:12:51;32.20;24.70
4209;DHT22;36320;48.860;2.380;2022-07-17T13:15:17;32.30;24.60
4209;DHT22;36320;48.860;2.380;2022-07-17T13:17:44;32.20;24.50
4209;DHT22;36320;48.860;2.380;2022-07-17T13:20:11;32.20;24.40
4209;DHT22;36320;48.860;2.380;2022-07-17T13:22:39;32.30;24.50
4209;DHT22;36320;48.860;2.380;2022-07-17T13:25:06;32.30;24.50
4209;DHT22;36320;48.860;2.380;2022-07-17T13:27:32;32.30;24.50
4209;DHT22;36320;48.860;2.380;2022-07-17T13:30:01;32.30;24.60
4209;DHT22;36320;48.860;2.380;2022-07-17T13:32:27;33.30;24.90
4209;DHT22;36320;48.860;2.380;2022-07-17T13:34:52;32.30;24.50
4209;DHT22;36320;48.860;2.380;2022-07-17T13:37:19;32.40;24.50
4209;DHT22;36320;48.860;2.380;2022-07-17T13:39:50;32.40;24.40
4209;DHT22;36320;48.860;2.380;2022-07-17T13:42:16;32.40;24.30
4209;DHT22;36320;48.860;2.380;2022-07-17T13:44:42;32.50;24.30
4209;DHT22;36320;48.860;2.380;2022-07-17T13:47:07;32.50;24.20
4209;DHT22;36320;48.860;2.380;2022-07-17T13:49:33;32.60;24.10
4209;DHT22;36320;48.860;2.380;2022-07-17T13:51:59;32.60;24.00
4209;DHT22;36320;48.860;2.380;2022-07-17T13:54:25;32.60;23.90
4209;DHT22;36320;48.860;2.380;2022-07-17T13:56:51;32.60;23.80
4209;DHT22;36320;48.860;2.380;2022-07-17T13:59:19;32.60;23.80
4209;DHT22;36320;48.860;2.380;2022-07-17T14:01:45;32.60;23.80
4209;DHT22;36320;48.860;2.380;2022-07-17T14:04:11;32.60;23.80
4209;DHT22;36320;48.860;2.380;2022-07-17T14:06:36;32.60;23.80
4209;DHT22;36320;48.860;2.380;2022-07-17T14:09:03;32.70;23.80
4209;DHT22;36320;48.860;2.380;2022-07-17T14:11:30;32.70;23.80
4209;DHT22;36320;48.860;2.380;2022-07-17T14:13:55;32.70;23.80
4209;DHT22;36320;48.860;2.380;2022-07-17T14:16:21;32.80;23.70
4209;DHT22;36320;48.860;2.380;2022-07-17T14:18:47;32.80;23.70
4209;DHT22;36320;48.860;2.380;2022-07-17T14:21:30;32.90;23.60
4209;DHT22;36320;48.860;2.380;2022-07-17T14:23:57;32.80;23.40
4209;DHT22;36320;48.860;2.380;2022-07-17T14:26:22;32.90;23.20
4209;DHT22;36320;48.860;2.380;2022-07-17T14:28:48;32.90;23.10
4209;DHT22;36320;48.860;2.380;2022-07-17T14:31:14;33.00;23.00
4209;DHT22;36320;48.860;2.380;2022-07-17T14:33:44;33.00;23.00
4209;DHT22;36320;48.860;2.380;2022-07-17T14:36:11;33.10;22.90
4209;DHT22;36320;48.860;2.380;2022-07-17T14:38:38;33.10;22.80
4209;DHT22;36320;48.860;2.380;2022-07-17T14:41:03;33.10;22.70
4209;DHT22;36320;48.860;2.380;2022-07-17T14:43:30;33.20;22.80
4209;DHT22;36320;48.860;2.380;2022-07-17T14:45:56;33.30;22.70
4209;DHT22;36320;48.860;2.380;2022-07-17T14:48:22;33.30;23.10
4209;DHT22;36320;48.860;2.380;2022-07-17T14:50:47;33.30;22.50
4209;DHT22;36320;48.860;2.380;2022-07-17T14:53:13;33.40;22.40
4209;DHT22;36320;48.860;2.380;2022-07-17T14:55:39;33.50;22.30
4209;DHT22;36320;48.860;2.380;2022-07-17T14:58:05;33.50;22.10
4209;DHT22;36320;48.860;2.380;2022-07-17T15:00:30;33.60;22.10
4209;DHT22;36320;48.860;2.380;2022-07-17T15:02:56;33.70;22.10
4209;DHT22;36320;48.860;2.380;2022-07-17T15:05:22;33.80;22.10
4209;DHT22;36320;48.860;2.380;2022-07-17T15:07:48;33.80;22.00
4209;DHT22;36320;48.860;2.380;2022-07-17T15:10:13;34.00;22.00
4209;DHT22;36320;48.860;2.380;2022-07-17T15:12:39;34.10;21.70
4209;DHT22;36320;48.860;2.380;2022-07-17T15:15:05;34.10;21.50
4209;DHT22;36320;48.860;2.380;2022-07-17T15:17:31;34.20;21.40
4209;DHT22;36320;48.860;2.380;2022-07-17T15:19:57;34.40;21.30
4209;DHT22;36320;48.860;2.380;2022-07-17T15:22:23;34.30;21.00
4209;DHT22;36320;48.860;2.380;2022-07-17T15:24:48;34.70;21.00
4209;DHT22;36320;48.860;2.380;2022-07-17T15:27:14;35.10;21.10
4209;DHT22;36320;48.860;2.380;2022-07-17T15:29:41;36.70;21.00
4209;DHT22;36320;48.860;2.380;2022-07-17T15:32:07;42.40;19.20
4209;DHT22;36320;48.860;2.380;2022-07-17T15:34:33;48.20;16.20
4209;DHT22;36320;48.860;2.380;2022-07-17T15:36:59;52.60;14.10
4209;DHT22;36320;48.860;2.380;2022-07-17T15:39:25;55.20;12.80
4209;DHT22;36320;48.860;2.380;2022-07-17T15:41:50;56.90;12.00
4209;DHT22;36320;48.860;2.380;2022-07-17T15:44:16;58.00;11.50
4209;DHT22;36320;48.860;2.380;2022-07-17T15:49:11;59.80;10.30
4209;DHT22;36320;48.860;2.380;2022-07-17T15:51:38;60.60;10.60
4209;DHT22;36320;48.860;2.380;2022-07-17T15:54:04;61.60;10.20
4209;DHT22;36320;48.860;2.380;2022-07-17T15:58:58;62.80;9.20
4209;DHT22;36320;48.860;2.380;2022-07-17T16:01:24;63.20;9.50
4209;DHT22;36320;48.860;2.380;2022-07-17T16:03:51;63.90;9.50
4209;DHT22;36320;48.860;2.380;2022-07-17T16:06:18;65.00;9.30